sensor_id;sensor_type;location;lat;lon;timestamp;P1;durP1;ratioP1;P2;durP2;ratioP2
60478;SDS011;46321;48.398;11.754;2023-04-28T00:00:53;17.35;;;9.98;;
60478;SDS011;46321;48.398;11.754;2023-04-28T00:03:18;16.08;;;9.40;;
60478;SDS011;46321;48.398;11.754;2023-04-28T00:05:43;14.95;;;9.43;;
60478;SDS011;46321;48.398;11.754;2023-04-28T00:08:09;18.65;;;10.60;;
60478;SDS011;46321;48.398;11.754;2023-04-28T00:10:34;16.88;;;9.68;;
60478;SDS011;46321;48.398;11.754;2023-04-28T00:12:59;14.90;;;9.43;;
60478;SDS011;46321;48.398;11.754;2023-04-28T00:15:25;17.13;;;10.35;;
60478;SDS011;46321;48.398;11.754;2023-04-28T00:17:50;14.82;;;9.23;;
60478;SDS011;46321;48.398;11.754;2023-04-28T00:20:16;17.30;;;9.57;;
60478;SDS011;46321;48.398;11.754;2023-04-28T00:22:41;20.73;;;9.68;;
60478;SDS011;46321;48.398;11.754;2023-04-28T00:25:07;15.80;;;9.52;;
60478;SDS011;46321;48.398;11.754;2023-04-28T00:27:33;16.15;;;10.02;;
60478;SDS011;46321;48.398;11.754;2023-04-28T00:29:59;14.82;;;8.68;;
60478;SDS011;46321;48.398;11.754;2023-04-28T00:32:25;17.13;;;9.23;;
60478;SDS011;46321;48.398;11.754;2023-04-28T00:34:50;19.15;;;10.40;;
60478;SDS011;46321;48.398;11.754;2023-04-28T00:37:15;17.15;;;9.35;;
60478;SDS011;46321;48.398;11.754;2023-04-28T00:39:41;16.08;;;9.55;;
60478;SDS011;46321;48.398;11.754;2023-04-28T00:42:06;17.52;;;9.77;;
60478;SDS011;46321;48.398;11.754;2023-04-28T00:44:31;14.30;;;8.82;;
60478;SDS011;46321;48.398;11.754;2023-04-28T00:46:57;17.75;;;9.60;;
60478;SDS011;46321;48.398;11.754;2023-04-28T00:49:23;17.75;;;9.68;;
60478;SDS011;46321;48.398;11.754;2023-04-28T00:51:50;18.02;;;9.73;;
60478;SDS011;46321;48.398;11.754;2023-04-28T00:54:15;16.17;;;9.68;;
60478;SDS011;46321;48.398;11.754;2023-04-28T00:56:41;16.27;;;9.60;;
60478;SDS011;46321;48.398;11.754;2023-04-28T00:59:07;17.40;;;10.15;;
60478;SDS011;46321;48.398;11.754;2023-04-28T01:01:33;18.88;;;10.27;;
60478;SDS011;46321;48.398;11.754;2023-04-28T01:03:59;16.05;;;9.43;;
60478;SDS011;46321;48.398;11.754;2023-04-28T01:06:24;18.70;;;9.95;;
60478;SDS011;46321;48.398;11.754;2023-04-28T01:08:51;15.45;;;9.52;;
60478;SDS011;46321;48.398;11.754;2023-04-28T01:11:17;21.20;;;10.35;;
60478;SDS011;46321;48.398;11.754;2023-04-28T01:13:42;17.08;;;10.13;;
60478;SDS011;46321;48.398;11.754;2023-04-28T01:16:07;15.80;;;9.60;;
60478;SDS011;46321;48.398;11.754;2023-04-28T01:18:33;21.75;;;10.15;;
60478;SDS011;46321;48.398;11.754;2023-04-28T01:20:58;14.88;;;9.40;;
60478;SDS011;46321;48.398;11.754;2023-04-28T01:23:24;17.80;;;10.23;;
60478;SDS011;46321;48.398;11.754;2023-04-28T01:25:49;17.70;;;10.10;;
60478;SDS011;46321;48.398;11.754;2023-04-28T01:28:15;19.38;;;9.77;;
60478;SDS011;46321;48.398;11.754;2023-04-28T01:30:40;18.52;;;9.43;;
60478;SDS011;46321;48.398;11.754;2023-04-28T01:33:05;16.45;;;9.73;;
60478;SDS011;46321;48.398;11.754;2023-04-28T01:35:31;15.60;;;9.70;;
60478;SDS011;46321;48.398;11.754;2023-04-28T01:37:56;17.92;;;9.13;;
60478;SDS011;46321;48.398;11.754;2023-04-28T01:40:21;17.48;;;9.07;;
60478;SDS011;46321;48.398;11.754;2023-04-28T01:42:47;14.77;;;8.38;;
60478;SDS011;46321;48.398;11.754;2023-04-28T01:45:12;14.60;;;9.00;;
60478;SDS011;46321;48.398;11.754;2023-04-28T01:47:37;16.75;;;9.50;;
60478;SDS011;46321;48.398;11.754;2023-04-28T01:50:03;15.20;;;9.35;;
60478;SDS011;46321;48.398;11.754;2023-04-28T01:52:29;14.60;;;8.68;;
60478;SDS011;46321;48.398;11.754;2023-04-28T01:54:54;15.00;;;8.45;;
60478;SDS011;46321;48.398;11.754;2023-04-28T01:57:19;19.52;;;8.93;;
60478;SDS011;46321;48.398;11.754;2023-04-28T01:59:45;17.05;;;8.60;;
60478;SDS011;46321;48.398;11.754;2023-04-28T02:02:10;15.43;;;8.55;;
60478;SDS011;46321;48.398;11.754;2023-04-28T02:04:36;16.15;;;9.20;;
60478;SDS011;46321;48.398;11.754;2023-04-28T02:07:02;14.82;;;8.98;;
60478;SDS011;46321;48.398;11.754;2023-04-28T02:09:27;14.75;;;9.13;;
60478;SDS011;46321;48.398;11.754;2023-04-28T02:11:53;17.35;;;9.52;;
60478;SDS011;46321;48.398;11.754;2023-04-28T02:14:18;15.68;;;8.10;;
60478;SDS011;46321;48.398;11.754;2023-04-28T02:16:43;15.60;;;8.63;;
60478;SDS011;46321;48.398;11.754;2023-04-28T02:19:09;18.13;;;9.13;;
60478;SDS011;46321;48.398;11.754;2023-04-28T02:21:34;15.68;;;9.23;;
60478;SDS011;46321;48.398;11.754;2023-04-28T02:23:59;15.68;;;8.88;;
60478;SDS011;46321;48.398;11.754;2023-04-28T02:26:25;15.57;;;9.00;;
60478;SDS011;46321;48.398;11.754;2023-04-28T02:28:50;18.15;;;9.45;;
60478;SDS011;46321;48.398;11.754;2023-04-28T02:31:15;18.05;;;8.90;;
60478;SDS011;46321;48.398;11.754;2023-04-28T02:33:41;16.58;;;9.50;;
60478;SDS011;46321;48.398;11.754;2023-04-28T02:36:07;17.15;;;9.23;;
60478;SDS011;46321;48.398;11.754;2023-04-28T02:38:33;16.95;;;9.07;;
60478;SDS011;46321;48.398;11.754;2023-04-28T02:40:59;15.45;;;8.70;;
60478;SDS011;46321;48.398;11.754;2023-04-28T02:43:29;14.45;;;8.88;;
60478;SDS011;46321;48.398;11.754;2023-04-28T02:45:56;16.20;;;9.02;;
60478;SDS011;46321;48.398;11.754;2023-04-28T02:48:22;18.88;;;9.27;;
60478;SDS011;46321;48.398;11.754;2023-04-28T02:50:47;15.10;;;9.52;;
60478;SDS011;46321;48.398;11.754;2023-04-28T02:53:13;41.05;;;18.33;;
60478;SDS011;46321;48.398;11.754;2023-04-28T02:55:38;40.00;;;17.25;;
60478;SDS011;46321;48.398;11.754;2023-04-28T02:58:03;23.77;;;12.00;;
60478;SDS011;46321;48.398;11.754;2023-04-28T03:00:29;21.15;;;11.20;;
60478;SDS011;46321;48.398;11.754;2023-04-28T03:02:54;18.80;;;10.60;;
60478;SDS011;46321;48.398;11.754;2023-04-28T03:05:20;18.00;;;9.85;;
60478;SDS011;46321;48.398;11.754;2023-04-28T03:07:45;23.15;;;11.25;;
60478;SDS011;46321;48.398;11.754;2023-04-28T03:10:10;18.10;;;9.73;;
60478;SDS011;46321;48.398;11.754;2023-04-28T03:12:36;20.60;;;9.80;;
60478;SDS011;46321;48.398;11.754;2023-04-28T03:15:01;16.63;;;9.90;;
60478;SDS011;46321;48.398;11.754;2023-04-28T03:17:27;15.32;;;9.88;;
60478;SDS011;46321;48.398;11.754;2023-04-28T03:19:52;16.38;;;10.05;;
60478;SDS011;46321;48.398;11.754;2023-04-28T03:22:17;18.27;;;9.68;;
60478;SDS011;46321;48.398;11.754;2023-04-28T03:24:43;17.08;;;9.45;;
60478;SDS011;46321;48.398;11.754;2023-04-28T03:27:08;15.98;;;9.43;;
60478;SDS011;46321;48.398;11.754;2023-04-28T03:29:33;14.55;;;9.52;;
60478;SDS011;46321;48.398;11.754;2023-04-28T03:31:59;16.63;;;9.63;;
60478;SDS011;46321;48.398;11.754;2023-04-28T03:34:24;16.70;;;8.27;;
60478;SDS011;46321;48.398;11.754;2023-04-28T03:36:49;16.15;;;9.65;;
60478;SDS011;46321;48.398;11.754;2023-04-28T03:39:15;17.27;;;10.30;;
60478;SDS011;46321;48.398;11.754;2023-04-28T03:41:40;16.02;;;9.68;;
60478;SDS011;46321;48.398;11.754;2023-04-28T03:44:05;16.85;;;10.25;;
60478;SDS011;46321;48.398;11.754;2023-04-28T03:46:31;15.88;;;10.27;;
60478;SDS011;46321;48.398;11.754;2023-04-28T03:48:56;20.70;;;11.57;;
60478;SDS011;46321;48.398;11.754;2023-04-28T03:51:21;17.38;;;10.20;;
60478;SDS011;46321;48.398;11.754;2023-04-28T03:53:46;20.75;;;10.23;;
60478;SDS011;46321;48.398;11.754;2023-04-28T03:56:12;16.05;;;9.70;;
60478;SDS011;46321;48.398;11.754;2023-04-28T03:58:37;17.80;;;10.55;;
60478;SDS011;46321;48.398;11.754;2023-04-28T04:01:02;18.23;;;10.57;;
60478;SDS011;46321;48.398;11.754;2023-04-28T04:03:29;17.73;;;10.48;;
60478;SDS011;46321;48.398;11.754;2023-04-28T04:05:54;19.35;;;9.93;;
60478;SDS011;46321;48.398;11.754;2023-04-28T04:08:20;17.77;;;10.35;;
60478;SDS011;46321;48.398;11.754;2023-04-28T04:10:45;16.55;;;9.57;;
60478;SDS011;46321;48.398;11.754;2023-04-28T04:13:10;19.75;;;10.60;;
60478;SDS011;46321;48.398;11.754;2023-04-28T04:15:36;16.42;;;10.02;;
60478;SDS011;46321;48.398;11.754;2023-04-28T04:18:01;18.13;;;10.82;;
60478;SDS011;46321;48.398;11.754;2023-04-28T04:20:26;18.05;;;10.50;;
60478;SDS011;46321;48.398;11.754;2023-04-28T04:22:51;20.35;;;10.55;;
60478;SDS011;46321;48.398;11.754;2023-04-28T04:25:17;20.30;;;11.57;;
60478;SDS011;46321;48.398;11.754;2023-04-28T04:27:42;19.95;;;10.82;;
60478;SDS011;46321;48.398;11.754;2023-04-28T04:30:07;21.95;;;11.52;;
60478;SDS011;46321;48.398;11.754;2023-04-28T04:32:33;17.13;;;10.80;;
60478;SDS011;46321;48.398;11.754;2023-04-28T04:34:58;20.25;;;11.63;;
60478;SDS011;46321;48.398;11.754;2023-04-28T04:37:23;19.88;;;11.10;;
60478;SDS011;46321;48.398;11.754;2023-04-28T04:39:49;18.25;;;11.02;;
60478;SDS011;46321;48.398;11.754;2023-04-28T04:42:14;19.50;;;10.88;;
60478;SDS011;46321;48.398;11.754;2023-04-28T04:44:39;23.73;;;11.30;;
60478;SDS011;46321;48.398;11.754;2023-04-28T04:47:05;20.30;;;11.70;;
60478;SDS011;46321;48.398;11.754;2023-04-28T04:49:30;17.75;;;10.60;;
60478;SDS011;46321;48.398;11.754;2023-04-28T04:51:55;17.70;;;10.75;;
60478;SDS011;46321;48.398;11.754;2023-04-28T04:54:21;19.35;;;10.45;;
60478;SDS011;46321;48.398;11.754;2023-04-28T04:56:46;20.05;;;10.77;;
60478;SDS011;46321;48.398;11.754;2023-04-28T04:59:11;23.23;;;11.45;;
60478;SDS011;46321;48.398;11.754;2023-04-28T05:01:37;17.52;;;11.10;;
60478;SDS011;46321;48.398;11.754;2023-04-28T05:04:02;18.67;;;11.07;;
60478;SDS011;46321;48.398;11.754;2023-04-28T05:06:28;19.45;;;11.77;;
60478;SDS011;46321;48.398;11.754;2023-04-28T05:08:53;16.98;;;10.95;;
60478;SDS011;46321;48.398;11.754;2023-04-28T05:11:20;21.13;;;11.85;;
60478;SDS011;46321;48.398;11.754;2023-04-28T05:13:45;18.10;;;11.55;;
60478;SDS011;46321;48.398;11.754;2023-04-28T05:16:11;17.77;;;11.65;;
60478;SDS011;46321;48.398;11.754;2023-04-28T05:18:36;24.45;;;13.48;;
60478;SDS011;46321;48.398;11.754;2023-04-28T05:21:01;22.80;;;12.98;;
60478;SDS011;46321;48.398;11.754;2023-04-28T05:23:27;25.00;;;12.68;;
60478;SDS011;46321;48.398;11.754;2023-04-28T05:25:52;20.85;;;12.45;;
60478;SDS011;46321;48.398;11.754;2023-04-28T05:28:17;20.20;;;11.57;;
60478;SDS011;46321;48.398;11.754;2023-04-28T05:30:42;24.58;;;12.70;;
60478;SDS011;46321;48.398;11.754;2023-04-28T05:33:08;23.67;;;13.57;;
60478;SDS011;46321;48.398;11.754;2023-04-28T05:35:34;20.65;;;12.77;;
60478;SDS011;46321;48.398;11.754;2023-04-28T05:37:59;21.25;;;12.65;;
60478;SDS011;46321;48.398;11.754;2023-04-28T05:40:25;22.02;;;13.05;;
60478;SDS011;46321;48.398;11.754;2023-04-28T05:42:51;21.98;;;12.38;;
60478;SDS011;46321;48.398;11.754;2023-04-28T05:45:16;19.42;;;12.60;;
60478;SDS011;46321;48.398;11.754;2023-04-28T05:47:42;19.10;;;11.85;;
60478;SDS011;46321;48.398;11.754;2023-04-28T05:50:08;21.52;;;11.68;;
60478;SDS011;46321;48.398;11.754;2023-04-28T05:52:33;19.75;;;10.73;;
60478;SDS011;46321;48.398;11.754;2023-04-28T05:54:59;19.08;;;11.20;;
60478;SDS011;46321;48.398;11.754;2023-04-28T05:57:24;21.75;;;9.88;;
60478;SDS011;46321;48.398;11.754;2023-04-28T05:59:49;19.15;;;9.93;;
60478;SDS011;46321;48.398;11.754;2023-04-28T06:02:15;16.35;;;9.73;;
60478;SDS011;46321;48.398;11.754;2023-04-28T06:04:40;16.35;;;9.38;;
60478;SDS011;46321;48.398;11.754;2023-04-28T06:07:06;16.15;;;9.45;;
60478;SDS011;46321;48.398;11.754;2023-04-28T06:09:32;16.88;;;8.82;;
60478;SDS011;46321;48.398;11.754;2023-04-28T06:11:57;16.52;;;8.38;;
60478;SDS011;46321;48.398;11.754;2023-04-28T06:14:22;17.30;;;9.40;;
60478;SDS011;46321;48.398;11.754;2023-04-28T06:16:47;16.90;;;8.88;;
60478;SDS011;46321;48.398;11.754;2023-04-28T06:19:14;14.23;;;7.38;;
60478;SDS011;46321;48.398;11.754;2023-04-28T06:21:42;12.48;;;7.68;;
60478;SDS011;46321;48.398;11.754;2023-04-28T06:24:08;13.00;;;6.82;;
60478;SDS011;46321;48.398;11.754;2023-04-28T06:26:33;10.98;;;6.95;;
60478;SDS011;46321;48.398;11.754;2023-04-28T06:28:58;8.88;;;5.90;;
60478;SDS011;46321;48.398;11.754;2023-04-28T06:31:23;9.00;;;5.53;;
60478;SDS011;46321;48.398;11.754;2023-04-28T06:33:49;11.05;;;6.03;;
60478;SDS011;46321;48.398;11.754;2023-04-28T06:36:14;8.02;;;4.82;;
60478;SDS011;46321;48.398;11.754;2023-04-28T06:38:41;6.93;;;4.65;;
60478;SDS011;46321;48.398;11.754;2023-04-28T06:41:07;6.15;;;4.07;;
60478;SDS011;46321;48.398;11.754;2023-04-28T06:43:33;5.65;;;3.42;;
60478;SDS011;46321;48.398;11.754;2023-04-28T06:45:58;6.68;;;3.80;;
60478;SDS011;46321;48.398;11.754;2023-04-28T06:48:24;5.78;;;3.55;;
60478;SDS011;46321;48.398;11.754;2023-04-28T06:50:50;4.63;;;3.05;;
60478;SDS011;46321;48.398;11.754;2023-04-28T06:53:15;7.18;;;4.00;;
60478;SDS011;46321;48.398;11.754;2023-04-28T06:55:41;5.68;;;3.60;;
60478;SDS011;46321;48.398;11.754;2023-04-28T06:58:06;5.25;;;3.50;;
60478;SDS011;46321;48.398;11.754;2023-04-28T07:00:32;4.18;;;3.25;;
60478;SDS011;46321;48.398;11.754;2023-04-28T07:02:58;7.85;;;4.10;;
60478;SDS011;46321;48.398;11.754;2023-04-28T07:05:23;7.00;;;3.80;;
60478;SDS011;46321;48.398;11.754;2023-04-28T07:07:48;6.72;;;3.33;;
60478;SDS011;46321;48.398;11.754;2023-04-28T07:10:14;7.28;;;3.63;;
60478;SDS011;46321;48.398;11.754;2023-04-28T07:12:40;5.00;;;3.13;;
60478;SDS011;46321;48.398;11.754;2023-04-28T07:15:05;5.25;;;3.58;;
60478;SDS011;46321;48.398;11.754;2023-04-28T07:17:31;4.78;;;3.25;;
60478;SDS011;46321;48.398;11.754;2023-04-28T07:19:56;6.45;;;3.53;;
60478;SDS011;46321;48.398;11.754;2023-04-28T07:22:22;4.72;;;3.10;;
60478;SDS011;46321;48.398;11.754;2023-04-28T07:24:47;6.97;;;3.70;;
60478;SDS011;46321;48.398;11.754;2023-04-28T07:27:12;7.20;;;4.00;;
60478;SDS011;46321;48.398;11.754;2023-04-28T07:29:37;7.55;;;3.90;;
60478;SDS011;46321;48.398;11.754;2023-04-28T07:32:03;4.82;;;3.40;;
60478;SDS011;46321;48.398;11.754;2023-04-28T07:34:29;5.50;;;3.60;;
60478;SDS011;46321;48.398;11.754;2023-04-28T07:36:55;5.80;;;3.60;;
60478;SDS011;46321;48.398;11.754;2023-04-28T07:39:20;4.47;;;3.33;;
60478;SDS011;46321;48.398;11.754;2023-04-28T07:41:46;7.47;;;3.80;;
60478;SDS011;46321;48.398;11.754;2023-04-28T07:44:11;4.45;;;3.28;;
60478;SDS011;46321;48.398;11.754;2023-04-28T07:46:36;7.18;;;3.67;;
60478;SDS011;46321;48.398;11.754;2023-04-28T07:49:02;5.70;;;3.78;;
60478;SDS011;46321;48.398;11.754;2023-04-28T07:51:28;5.97;;;3.38;;
60478;SDS011;46321;48.398;11.754;2023-04-28T07:53:54;6.45;;;3.97;;
60478;SDS011;46321;48.398;11.754;2023-04-28T07:56:20;5.70;;;3.90;;
60478;SDS011;46321;48.398;11.754;2023-04-28T07:58:46;6.88;;;4.68;;
60478;SDS011;46321;48.398;11.754;2023-04-28T08:01:11;7.20;;;4.53;;
60478;SDS011;46321;48.398;11.754;2023-04-28T08:03:36;7.05;;;4.50;;
60478;SDS011;46321;48.398;11.754;2023-04-28T08:06:02;6.15;;;3.95;;
60478;SDS011;46321;48.398;11.754;2023-04-28T08:08:28;6.40;;;4.35;;
60478;SDS011;46321;48.398;11.754;2023-04-28T08:10:54;5.90;;;3.78;;
60478;SDS011;46321;48.398;11.754;2023-04-28T08:13:20;7.70;;;4.32;;
60478;SDS011;46321;48.398;11.754;2023-04-28T08:15:46;6.75;;;4.38;;
60478;SDS011;46321;48.398;11.754;2023-04-28T08:18:12;8.75;;;4.47;;
60478;SDS011;46321;48.398;11.754;2023-04-28T08:20:37;7.63;;;4.45;;
60478;SDS011;46321;48.398;11.754;2023-04-28T08:23:03;6.28;;;4.30;;
60478;SDS011;46321;48.398;11.754;2023-04-28T08:25:28;9.20;;;4.57;;
60478;SDS011;46321;48.398;11.754;2023-04-28T08:27:53;6.13;;;4.40;;
60478;SDS011;46321;48.398;11.754;2023-04-28T08:30:20;7.85;;;4.80;;
60478;SDS011;46321;48.398;11.754;2023-04-28T08:32:45;8.02;;;4.47;;
60478;SDS011;46321;48.398;11.754;2023-04-28T08:35:11;7.00;;;4.30;;
60478;SDS011;46321;48.398;11.754;2023-04-28T08:37:36;5.45;;;3.67;;
60478;SDS011;46321;48.398;11.754;2023-04-28T08:40:02;4.65;;;3.67;;
60478;SDS011;46321;48.398;11.754;2023-04-28T08:42:33;5.40;;;3.75;;
60478;SDS011;46321;48.398;11.754;2023-04-28T08:44:59;5.43;;;3.50;;
60478;SDS011;46321;48.398;11.754;2023-04-28T08:47:37;6.10;;;3.75;;
60478;SDS011;46321;48.398;11.754;2023-04-28T08:50:07;5.95;;;3.70;;
60478;SDS011;46321;48.398;11.754;2023-04-28T08:52:34;4.45;;;3.22;;
60478;SDS011;46321;48.398;11.754;2023-04-28T08:55:01;4.97;;;3.22;;
60478;SDS011;46321;48.398;11.754;2023-04-28T08:57:34;5.25;;;3.55;;
60478;SDS011;46321;48.398;11.754;2023-04-28T09:00:03;5.60;;;3.28;;
60478;SDS011;46321;48.398;11.754;2023-04-28T09:02:29;5.40;;;3.10;;
60478;SDS011;46321;48.398;11.754;2023-04-28T09:04:54;6.18;;;3.45;;
60478;SDS011;46321;48.398;11.754;2023-04-28T09:07:20;5.68;;;2.92;;
60478;SDS011;46321;48.398;11.754;2023-04-28T09:09:45;5.97;;;3.15;;
60478;SDS011;46321;48.398;11.754;2023-04-28T09:12:11;4.35;;;2.92;;
60478;SDS011;46321;48.398;11.754;2023-04-28T09:14:36;8.85;;;3.45;;
60478;SDS011;46321;48.398;11.754;2023-04-28T09:17:08;4.38;;;3.00;;
60478;SDS011;46321;48.398;11.754;2023-04-28T09:19:39;5.40;;;3.22;;
60478;SDS011;46321;48.398;11.754;2023-04-28T09:22:06;7.63;;;3.60;;
60478;SDS011;46321;48.398;11.754;2023-04-28T09:24:36;5.68;;;3.58;;
60478;SDS011;46321;48.398;11.754;2023-04-28T09:27:07;7.32;;;3.60;;
60478;SDS011;46321;48.398;11.754;2023-04-28T09:29:36;4.47;;;3.25;;
60478;SDS011;46321;48.398;11.754;2023-04-28T09:34:46;6.05;;;3.83;;
60478;SDS011;46321;48.398;11.754;2023-04-28T09:37:14;7.05;;;3.63;;
60478;SDS011;46321;48.398;11.754;2023-04-28T09:39:41;6.05;;;3.30;;
60478;SDS011;46321;48.398;11.754;2023-04-28T09:42:23;7.50;;;3.58;;
60478;SDS011;46321;48.398;11.754;2023-04-28T09:45:11;6.15;;;3.40;;
60478;SDS011;46321;48.398;11.754;2023-04-28T09:47:38;5.13;;;3.50;;
60478;SDS011;46321;48.398;11.754;2023-04-28T09:50:06;6.72;;;4.10;;
60478;SDS011;46321;48.398;11.754;2023-04-28T09:52:33;5.90;;;3.75;;
60478;SDS011;46321;48.398;11.754;2023-04-28T09:55:00;5.07;;;3.80;;
60478;SDS011;46321;48.398;11.754;2023-04-28T09:57:30;4.75;;;3.53;;
60478;SDS011;46321;48.398;11.754;2023-04-28T09:59:57;6.95;;;3.72;;
60478;SDS011;46321;48.398;11.754;2023-04-28T10:02:23;5.07;;;3.45;;
60478;SDS011;46321;48.398;11.754;2023-04-28T10:04:49;5.90;;;4.15;;
60478;SDS011;46321;48.398;11.754;2023-04-28T10:07:19;7.10;;;4.00;;
60478;SDS011;46321;48.398;11.754;2023-04-28T10:09:49;6.22;;;4.57;;
60478;SDS011;46321;48.398;11.754;2023-04-28T10:12:21;7.75;;;2.38;;
60478;SDS011;46321;48.398;11.754;2023-04-28T10:14:48;4.15;;;3.47;;
60478;SDS011;46321;48.398;11.754;2023-04-28T10:17:15;4.78;;;3.10;;
60478;SDS011;46321;48.398;11.754;2023-04-28T10:19:41;11.57;;;8.57;;
60478;SDS011;46321;48.398;11.754;2023-04-28T10:27:36;8.23;;;5.43;;
60478;SDS011;46321;48.398;11.754;2023-04-28T10:30:10;7.75;;;4.82;;
60478;SDS011;46321;48.398;11.754;2023-04-28T10:32:39;4.05;;;2.60;;
60478;SDS011;46321;48.398;11.754;2023-04-28T10:40:33;14.75;;;9.43;;
60478;SDS011;46321;48.398;11.754;2023-04-28T10:43:03;7.18;;;5.32;;
60478;SDS011;46321;48.398;11.754;2023-04-28T10:48:12;9.73;;;6.32;;
60478;SDS011;46321;48.398;11.754;2023-04-28T10:50:54;12.88;;;8.23;;
60478;SDS011;46321;48.398;11.754;2023-04-28T10:53:20;4.40;;;3.05;;
60478;SDS011;46321;48.398;11.754;2023-04-28T10:55:46;4.82;;;2.80;;
60478;SDS011;46321;48.398;11.754;2023-04-28T10:58:29;12.40;;;7.53;;
60478;SDS011;46321;48.398;11.754;2023-04-28T11:01:03;7.05;;;3.75;;
60478;SDS011;46321;48.398;11.754;2023-04-28T11:06:16;4.13;;;2.53;;
60478;SDS011;46321;48.398;11.754;2023-04-28T11:08:50;8.20;;;2.92;;
60478;SDS011;46321;48.398;11.754;2023-04-28T11:11:20;3.70;;;2.50;;
60478;SDS011;46321;48.398;11.754;2023-04-28T11:13:47;7.00;;;2.80;;
60478;SDS011;46321;48.398;11.754;2023-04-28T11:16:14;6.18;;;3.42;;
60478;SDS011;46321;48.398;11.754;2023-04-28T11:18:51;4.50;;;2.60;;
60478;SDS011;46321;48.398;11.754;2023-04-28T11:21:28;6.35;;;2.95;;
60478;SDS011;46321;48.398;11.754;2023-04-28T11:23:54;7.38;;;3.10;;
60478;SDS011;46321;48.398;11.754;2023-04-28T11:26:21;4.30;;;2.40;;
60478;SDS011;46321;48.398;11.754;2023-04-28T11:28:48;4.22;;;2.63;;
60478;SDS011;46321;48.398;11.754;2023-04-28T11:31:15;3.20;;;2.17;;
60478;SDS011;46321;48.398;11.754;2023-04-28T11:33:48;2.80;;;2.20;;
60478;SDS011;46321;48.398;11.754;2023-04-28T11:38:53;6.57;;;2.78;;
60478;SDS011;46321;48.398;11.754;2023-04-28T11:41:20;3.72;;;2.88;;
60478;SDS011;46321;48.398;11.754;2023-04-28T11:43:45;4.75;;;2.53;;
60478;SDS011;46321;48.398;11.754;2023-04-28T11:46:15;3.25;;;2.08;;
60478;SDS011;46321;48.398;11.754;2023-04-28T11:48:41;3.88;;;2.28;;
60478;SDS011;46321;48.398;11.754;2023-04-28T11:51:07;6.22;;;3.10;;
60478;SDS011;46321;48.398;11.754;2023-04-28T11:53:39;3.33;;;2.30;;
60478;SDS011;46321;48.398;11.754;2023-04-28T11:56:08;3.33;;;2.28;;
60478;SDS011;46321;48.398;11.754;2023-04-28T11:58:34;3.22;;;2.50;;
60478;SDS011;46321;48.398;11.754;2023-04-28T12:01:09;3.05;;;1.95;;
60478;SDS011;46321;48.398;11.754;2023-04-28T12:03:45;4.03;;;2.50;;
60478;SDS011;46321;48.398;11.754;2023-04-28T12:06:11;4.00;;;2.47;;
60478;SDS011;46321;48.398;11.754;2023-04-28T12:08:36;4.07;;;2.20;;
60478;SDS011;46321;48.398;11.754;2023-04-28T12:11:08;5.00;;;3.33;;
60478;SDS011;46321;48.398;11.754;2023-04-28T12:13:35;4.45;;;2.50;;
60478;SDS011;46321;48.398;11.754;2023-04-28T12:16:02;2.58;;;1.17;;
60478;SDS011;46321;48.398;11.754;2023-04-28T12:18:29;2.78;;;1.50;;
60478;SDS011;46321;48.398;11.754;2023-04-28T12:20:55;5.15;;;2.03;;
60478;SDS011;46321;48.398;11.754;2023-04-28T12:23:30;2.33;;;1.50;;
60478;SDS011;46321;48.398;11.754;2023-04-28T12:25:59;3.90;;;2.40;;
60478;SDS011;46321;48.398;11.754;2023-04-28T12:28:35;4.07;;;1.95;;
60478;SDS011;46321;48.398;11.754;2023-04-28T12:31:06;3.40;;;2.13;;
60478;SDS011;46321;48.398;11.754;2023-04-28T12:33:33;6.18;;;4.30;;
60478;SDS011;46321;48.398;11.754;2023-04-28T12:36:01;4.00;;;3.30;;
60478;SDS011;46321;48.398;11.754;2023-04-28T12:38:27;2.40;;;2.10;;
60478;SDS011;46321;48.398;11.754;2023-04-28T12:40:53;2.38;;;1.85;;
60478;SDS011;46321;48.398;11.754;2023-04-28T12:43:18;2.95;;;1.80;;
60478;SDS011;46321;48.398;11.754;2023-04-28T12:45:46;2.25;;;1.60;;
60478;SDS011;46321;48.398;11.754;2023-04-28T12:48:12;2.28;;;1.10;;
60478;SDS011;46321;48.398;11.754;2023-04-28T12:50:38;2.72;;;1.13;;
60478;SDS011;46321;48.398;11.754;2023-04-28T12:53:03;5.03;;;1.33;;
60478;SDS011;46321;48.398;11.754;2023-04-28T12:55:29;2.55;;;1.45;;
60478;SDS011;46321;48.398;11.754;2023-04-28T12:57:54;3.15;;;1.52;;
60478;SDS011;46321;48.398;11.754;2023-04-28T13:00:19;3.67;;;1.73;;
60478;SDS011;46321;48.398;11.754;2023-04-28T13:02:47;2.20;;;1.30;;
60478;SDS011;46321;48.398;11.754;2023-04-28T13:05:13;2.55;;;1.67;;
60478;SDS011;46321;48.398;11.754;2023-04-28T13:07:38;2.10;;;1.40;;
60478;SDS011;46321;48.398;11.754;2023-04-28T13:10:04;2.20;;;1.50;;
60478;SDS011;46321;48.398;11.754;2023-04-28T13:12:30;3.60;;;1.33;;
60478;SDS011;46321;48.398;11.754;2023-04-28T13:14:55;3.63;;;1.02;;
60478;SDS011;46321;48.398;11.754;2023-04-28T13:17:20;1.55;;;1.05;;
60478;SDS011;46321;48.398;11.754;2023-04-28T13:19:46;3.85;;;1.67;;
60478;SDS011;46321;48.398;11.754;2023-04-28T13:22:11;3.33;;;1.70;;
60478;SDS011;46321;48.398;11.754;2023-04-28T13:24:37;2.90;;;1.48;;
60478;SDS011;46321;48.398;11.754;2023-04-28T13:27:02;1.70;;;1.30;;
60478;SDS011;46321;48.398;11.754;2023-04-28T13:29:28;2.92;;;1.38;;
60478;SDS011;46321;48.398;11.754;2023-04-28T13:31:53;2.50;;;1.40;;
60478;SDS011;46321;48.398;11.754;2023-04-28T13:34:19;3.97;;;1.50;;
60478;SDS011;46321;48.398;11.754;2023-04-28T13:36:44;2.15;;;1.55;;
60478;SDS011;46321;48.398;11.754;2023-04-28T13:39:11;5.22;;;2.15;;
60478;SDS011;46321;48.398;11.754;2023-04-28T13:41:40;4.07;;;1.70;;
60478;SDS011;46321;48.398;11.754;2023-04-28T13:44:05;3.92;;;2.55;;
60478;SDS011;46321;48.398;11.754;2023-04-28T13:46:30;2.57;;;2.07;;
60478;SDS011;46321;48.398;11.754;2023-04-28T13:48:56;3.28;;;2.40;;
60478;SDS011;46321;48.398;11.754;2023-04-28T13:51:22;4.55;;;2.20;;
60478;SDS011;46321;48.398;11.754;2023-04-28T13:53:47;2.58;;;1.92;;
60478;SDS011;46321;48.398;11.754;2023-04-28T13:56:12;2.88;;;2.13;;
60478;SDS011;46321;48.398;11.754;2023-04-28T13:58:38;1.80;;;1.70;;
60478;SDS011;46321;48.398;11.754;2023-04-28T14:01:03;1.90;;;1.70;;
60478;SDS011;46321;48.398;11.754;2023-04-28T14:03:28;3.03;;;1.65;;
60478;SDS011;46321;48.398;11.754;2023-04-28T14:05:55;2.70;;;1.83;;
60478;SDS011;46321;48.398;11.754;2023-04-28T14:08:22;5.43;;;2.03;;
60478;SDS011;46321;48.398;11.754;2023-04-28T14:10:48;2.08;;;1.60;;
60478;SDS011;46321;48.398;11.754;2023-04-28T14:13:14;2.60;;;1.60;;
60478;SDS011;46321;48.398;11.754;2023-04-28T14:15:40;4.05;;;1.92;;
60478;SDS011;46321;48.398;11.754;2023-04-28T14:18:05;2.53;;;1.92;;
60478;SDS011;46321;48.398;11.754;2023-04-28T14:20:31;2.78;;;1.50;;
60478;SDS011;46321;48.398;11.754;2023-04-28T14:22:57;1.95;;;1.73;;
60478;SDS011;46321;48.398;11.754;2023-04-28T14:25:23;3.63;;;1.65;;
60478;SDS011;46321;48.398;11.754;2023-04-28T14:27:48;2.42;;;2.05;;
60478;SDS011;46321;48.398;11.754;2023-04-28T14:30:14;1.88;;;1.50;;
60478;SDS011;46321;48.398;11.754;2023-04-28T14:32:40;2.75;;;1.85;;
60478;SDS011;46321;48.398;11.754;2023-04-28T14:35:06;2.40;;;1.73;;
60478;SDS011;46321;48.398;11.754;2023-04-28T14:37:31;2.05;;;1.73;;
60478;SDS011;46321;48.398;11.754;2023-04-28T14:39:57;2.35;;;1.83;;
60478;SDS011;46321;48.398;11.754;2023-04-28T14:42:26;2.28;;;1.98;;